Latest Weather Observations for Rocky Gully South

IDW60801

Issued at 2:33 am WST Saturday 5 September 2015 (issued every 30 minutes, with the page automatically refreshed every 10 minutes)

About weather observations | Map of weather stations | Latest weather observations for WA | Other Formats
Station Details ID: 009964 Name: ROCKY GULLY Lat: -34.57 Lon: 117.01 Height: 250.0 m
Data from the previous 72 hours. | See also: Recent months at Rocky Gully South
Date/Time
WST
Temp
°C
App
Temp
°C
Dew
Point
Rel
Hum
%
Delta-T
°C
Wind Press
QNH
hPa
Press
MSL
hPa
Rain
since 9 am
mm
Dir
 
Spd
km/h
Gust
km/h
Spd
kts
Gust
kts
05/02:30am 10.8 7.8 9.4 91 0.7 NW 15 22 8 12 - - 2.0
05/02:00am 10.8 8.2 9.4 91 0.7 NW 13 20 7 11 - - 2.0
05/01:30am 10.9 8.7 9.3 90 0.8 NW 11 19 6 10 - - 2.0
05/01:00am 11.3 9.2 9.6 89 0.9 WNW 11 19 6 10 - - 2.0
05/12:30am 11.5 8.6 9.8 89 0.9 WNW 15 22 8 12 - - 2.0
05/12:00am 11.8 9.4 9.9 88 1.0 NW 13 24 7 13 - - 2.0
 
Date/Time
WST
Temp
°C
App
Temp
°C
Dew
Point
Rel
Hum
%
Delta-T
°C
Wind Press
QNH
hPa
Press
MSL
hPa
Rain
since 9 am
mm
Dir
 
Spd
km/h
Gust
km/h
Spd
kts
Gust
kts
04/11:30pm 12.0 9.2 10.1 88 1.0 NW 15 24 8 13 - - 2.0
04/11:00pm 11.6 9.2 9.9 89 0.9 NNW 13 20 7 11 - - 1.8
04/10:30pm 11.5 9.4 9.6 88 1.0 NNW 11 17 6 9 - - 1.8
04/10:00pm 11.8 9.0 9.9 88 1.0 NNW 15 26 8 14 - - 1.8
04/09:30pm 11.7 9.2 9.6 87 1.1 NNW 13 20 7 11 - - 1.8
04/09:00pm 11.9 9.5 10.0 88 1.0 NNW 13 20 7 11 - - 1.8
04/08:30pm 11.6 9.1 9.7 88 1.0 NNW 13 19 7 10 - - 1.8
04/08:00pm 12.0 9.6 10.1 88 1.0 NNW 13 24 7 13 - - 1.8
04/07:30pm 12.3 9.7 10.7 90 0.8 NNW 15 22 8 12 - - 1.8
04/07:00pm 12.6 10.4 10.8 89 1.0 NNW 13 20 7 11 - - 1.8
04/06:30pm 13.0 10.8 10.7 86 1.2 NW 13 20 7 11 - - 1.0
04/06:00pm 13.3 11.0 10.3 82 1.6 NNW 13 26 7 14 - - 0.4
04/05:30pm 14.1 11.5 9.5 74 2.4 NNW 13 20 7 11 - - 0.2
04/05:00pm 14.4 11.8 9.2 71 2.7 NNW 13 26 7 14 - - 0.0
04/04:30pm 15.1 12.2 8.3 64 3.5 NNW 13 22 7 12 - - 0.0
04/04:00pm 15.2 12.7 8.4 64 3.5 NNW 11 17 6 9 - - 0.0
04/03:30pm 15.2 12.3 8.2 63 3.6 NNW 13 22 7 12 - - 0.0
04/03:00pm 15.3 11.9 7.6 60 3.9 NW 15 24 8 13 - - 0.0
04/02:30pm 15.4 11.9 7.4 59 4.0 NNW 15 22 8 12 - - 0.0
04/02:00pm 15.6 12.5 7.1 57 4.2 NW 13 19 7 10 - - 0.0
04/01:30pm 15.4 12.2 6.7 56 4.3 NNW 13 22 7 12 - - 0.0
04/01:00pm 15.8 12.5 6.3 53 4.7 NW 13 20 7 11 - - 0.0
04/12:30pm 15.9 12.1 5.8 51 4.9 NW 15 26 8 14 - - 0.0
04/12:00pm 15.3 11.5 5.8 53 4.6 WNW 15 28 8 15 - - 0.0
04/11:30am 15.6 11.3 5.2 50 5.0 NW 17 28 9 15 - - 0.0
04/11:00am 14.2 10.0 5.6 56 4.1 NW 17 32 9 17 - - 0.0
04/10:30am 14.2 10.9 6.6 60 3.7 NW 13 24 7 13 - - 0.0
04/10:00am 13.4 10.5 6.3 62 3.4 WNW 11 17 6 9 - - 0.0
04/09:30am 12.4 9.2 6.9 69 2.7 NNW 13 20 7 11 - - 0.0
04/09:00am 10.5 8.0 6.5 76 1.9 N 9 17 5 9 - - 0.2
04/08:30am 8.8 5.8 6.2 84 1.2 N 11 17 6 9 - - 0.2
04/08:00am 8.1 5.7 6.9 92 0.6 N 9 15 5 8 - - 0.2
04/07:30am 6.5 4.4 5.6 94 0.4 N 6 9 3 5 - - 0.2
04/07:00am 5.7 3.2 4.8 94 0.4 N 7 9 4 5 - - 0.0
04/06:30am 6.0 3.5 5.0 93 0.4 N 7 11 4 6 - - 0.0
04/06:00am 6.4 3.7 5.4 93 0.4 NNE 9 13 5 7 - - 0.0
04/05:30am 6.9 4.2 5.8 93 0.5 NNE 9 17 5 9 - - 0.0
04/05:00am 7.3 4.7 6.2 93 0.5 NNE 9 17 5 9 - - 0.0
04/04:30am 7.6 4.7 6.5 93 0.5 NNE 11 17 6 9 - - 0.0
04/04:00am 7.8 4.9 6.6 92 0.6 NNE 11 17 6 9 - - 0.0
04/03:30am 7.7 5.2 6.5 92 0.6 NNE 9 15 5 8 - - 0.0
04/03:00am 8.2 5.4 6.8 91 0.7 NE 11 17 6 9 - - 0.0
04/02:30am 8.2 5.4 6.8 91 0.7 NNE 11 17 6 9 - - 0.0
04/02:00am 8.4 6.0 6.9 90 0.7 NE 9 17 5 9 - - 0.0
04/01:30am 8.5 5.7 6.8 89 0.8 NE 11 20 6 11 - - 0.0
04/01:00am 8.7 5.9 6.8 88 0.9 NE 11 20 6 11 - - 0.0
04/12:30am 8.7 5.8 6.7 87 0.9 NE 11 17 6 9 - - 0.0
04/12:00am 8.7 5.8 6.7 87 0.9 NE 11 20 6 11 - - 0.0
 
Date/Time
WST
Temp
°C
App
Temp
°C
Dew
Point
Rel
Hum
%
Delta-T
°C
Wind Press
QNH
hPa
Press
MSL
hPa
Rain
since 9 am
mm
Dir
 
Spd
km/h
Gust
km/h
Spd
kts
Gust
kts
03/11:30pm 8.4 5.8 6.2 86 1.0 NE 9 17 5 9 - - 0.0
03/11:00pm 8.2 6.0 6.0 86 1.0 NE 7 13 4 7 - - 0.0
03/10:30pm 8.6 6.0 6.2 85 1.1 NE 9 13 5 7 - - 0.0
03/10:00pm 8.8 6.6 6.2 84 1.2 ENE 7 13 4 7 - - 0.0
03/09:30pm 8.9 6.3 6.2 83 1.3 ENE 9 15 5 8 - - 0.0
03/09:00pm 8.5 6.1 5.3 80 1.5 E 7 13 4 7 - - 0.0
03/08:30pm 8.7 6.3 5.3 79 1.5 E 7 13 4 7 - - 0.0
03/08:00pm 8.9 6.5 5.1 77 1.7 E 7 11 4 6 - - 0.0
03/07:30pm 9.0 6.6 5.2 77 1.7 E 7 9 4 5 - - 0.0
03/07:00pm 9.0 6.8 5.2 77 1.7 E 6 9 3 5 - - 0.0
03/06:30pm 9.2 6.9 5.0 75 1.9 E 6 7 3 4 - - 0.0
03/06:00pm 9.9 7.6 4.9 71 2.3 E 6 7 3 4 - - 0.0
03/05:30pm 11.2 8.8 5.1 66 2.8 E 7 11 4 6 - - 0.0
03/05:00pm 12.7 10.3 5.1 60 3.6 E 7 9 4 5 - - 0.0
03/04:30pm 13.2 10.7 4.9 57 3.9 E 7 11 4 6 - - 0.0
03/04:00pm 13.0 10.8 5.4 60 3.6 ENE 6 7 3 4 - - 0.0
03/03:30pm 12.9 10.7 5.1 59 3.7 ENE 6 9 3 5 - - 0.0
03/03:00pm 13.1 11.3 5.3 59 3.7 N 4 9 2 5 - - 0.0
03/02:30pm 13.0 10.5 4.7 57 3.9 NNE 7 11 4 6 - - 0.0
03/02:00pm 13.0 10.7 5.9 62 3.4 NNE 7 11 4 6 - - 0.0
03/01:30pm 12.6 9.7 4.6 58 3.7 NNE 9 15 5 8 - - 0.0
03/01:00pm 12.5 9.9 4.2 57 3.8 N 7 13 4 7 - - 0.0
03/12:30pm 12.3 10.0 5.0 61 3.4 WNW 6 7 3 4 - - 0.0
03/12:00pm 11.8 9.3 4.5 61 3.4 N 7 11 4 6 - - 0.0
03/11:30am 11.5 9.0 4.5 62 3.2 NNW 7 11 4 6 - - 0.0
03/11:00am 11.6 9.2 5.3 65 2.9 ENE 7 13 4 7 - - 0.0
03/10:30am 11.3 8.4 4.5 63 3.1 NNE 9 19 5 10 - - 0.0
03/10:00am 11.5 7.8 4.5 62 3.2 NNE 13 20 7 11 - - 0.0
03/09:30am 10.9 7.7 5.2 68 2.6 NE 11 20 6 11 - - 0.0
03/09:00am 10.4 8.1 5.8 73 2.2 NE 7 15 4 8 - - 0.0
03/08:30am 9.8 7.9 6.9 82 1.4 ENE 6 13 3 7 - - 0.0
03/08:00am 8.4 6.6 7.2 92 0.6 NE 6 9 3 5 - - 0.0
03/07:30am 6.1 3.8 4.9 92 0.5 ENE 6 9 3 5 - - 0.0
03/07:00am 4.6 2.4 3.3 91 0.5 NE 4 7 2 4 - - 0.0
03/06:30am 5.1 2.6 3.8 91 0.6 ENE 6 7 3 4 - - 0.0
03/06:00am 5.4 3.7 3.9 90 0.6 ENE 2 6 1 3 - - 0.0
03/05:30am 6.3 5.1 4.8 90 0.7 CALM 0 6 0 3 - - 0.0
03/05:00am 5.9 4.6 4.2 89 0.7 CALM 0 0 0 0 - - 0.0
03/04:30am 6.4 4.4 4.4 87 0.9 E 4 7 2 4 - - 0.0
03/04:00am 7.1 5.6 5.1 87 0.9 N 2 7 1 4 - - 0.0
03/03:30am 7.4 5.2 5.2 86 1.0 NNE 6 9 3 5 - - 0.0
03/03:00am 7.4 4.9 5.0 85 1.1 N 7 9 4 5 - - 0.0
03/02:30am 7.4 5.1 4.7 83 1.2 NNE 6 13 3 7 - - 0.0
03/02:00am 7.0 4.4 3.1 76 1.7 N 6 9 3 5 - - 0.0
03/01:30am 6.3 3.3 2.0 74 1.8 NNE 7 13 4 7 - - 0.0
03/01:00am 7.3 4.5 2.2 70 2.1 ENE 6 9 3 5 - - 0.0
03/12:30am 8.0 5.4 3.1 71 2.1 NE 6 9 3 5 - - 0.0
03/12:00am 8.4 6.7 4.0 74 1.9 E 2 7 1 4 - - 0.0
 
Date/Time
WST
Temp
°C
App
Temp
°C
Dew
Point
Rel
Hum
%
Delta-T
°C
Wind Press
QNH
hPa
Press
MSL
hPa
Rain
since 9 am
mm
Dir
 
Spd
km/h
Gust
km/h
Spd
kts
Gust
kts
02/11:30pm 8.6 6.2 4.4 75 1.9 ENE 6 9 3 5 - - 0.0
02/11:00pm 9.0 6.7 4.6 74 2.0 ENE 6 9 3 5 - - 0.0
02/10:30pm 9.1 7.2 5.1 76 1.8 E 4 7 2 4 - - 0.0
02/10:00pm 9.2 8.2 5.4 77 1.7 CALM 0 0 0 0 - - 0.0
02/09:30pm 9.3 8.3 5.5 77 1.7 CALM 0 6 0 3 - - 0.0
02/09:00pm 9.5 7.8 5.7 77 1.8 E 4 7 2 4 - - 0.0
02/08:30pm 9.6 8.2 5.6 76 1.8 ESE 2 7 1 4 - - 0.0
02/08:00pm 10.0 7.7 5.6 74 2.0 SSE 7 11 4 6 - - 0.0
02/07:30pm 9.8 7.5 5.8 76 1.9 SE 7 9 4 5 - - 0.0
02/07:00pm 9.8 7.7 6.0 77 1.8 ESE 6 11 3 6 - - 0.0
02/06:30pm 9.9 7.8 5.9 76 1.9 SE 6 9 3 5 - - 0.0
02/06:00pm 10.1 8.0 5.9 75 2.0 SSE 6 9 3 5 - - 0.0
02/05:30pm 10.4 8.2 6.0 74 2.1 SSE 7 11 4 6 - - 0.0
02/05:00pm 10.6 8.3 5.8 72 2.2 SSE 7 11 4 6 - - 0.0
02/04:30pm 10.9 7.8 5.7 70 2.4 S 11 15 6 8 - - 0.0
02/04:00pm 11.6 8.6 5.9 68 2.7 S 11 17 6 9 - - 0.0
02/03:30pm 11.6 8.9 5.5 66 2.9 SSE 9 19 5 10 - - 0.0
02/03:00pm 11.5 8.3 5.2 65 2.9 SSE 11 20 6 11 - - 0.0
02/02:30pm 12.1 8.9 5.3 63 3.2 S 11 17 6 9 - - 0.0
02/02:00pm 11.9 8.7 5.1 63 3.2 S 11 22 6 12 - - 0.0
02/01:30pm 11.7 9.0 5.8 67 2.8 S 9 13 5 7 - - 0.0
02/01:00pm 12.3 9.1 5.2 62 3.3 SSE 11 15 6 8 - - 0.0
02/12:30pm 11.8 9.6 6.3 69 2.6 SSE 7 19 4 10 - - 0.0
02/12:00pm 11.5 8.4 5.6 67 2.8 SSE 11 20 6 11 - - 0.0
02/11:30am 11.2 8.1 5.5 68 2.7 SSE 11 20 6 11 - - 0.0
02/11:00am 11.9 9.0 6.4 69 2.6 S 11 17 6 9 - - 0.0
02/10:30am 10.5 8.4 6.8 78 1.8 SSW 7 13 4 7 - - 0.0
02/10:00am 9.5 7.5 6.4 81 1.5 SW 6 9 3 5 - - 0.0
02/09:30am 8.6 6.7 6.6 87 0.9 W 6 7 3 4 - - 0.0
02/09:00am 8.0 7.2 6.6 91 0.7 CALM 0 0 0 0 - - 1.8
02/08:30am 7.5 5.5 6.4 93 0.5 W 6 7 3 4 - - 1.8
02/08:00am 7.2 5.2 6.1 93 0.5 W 6 9 3 5 - - 1.8
02/07:30am 6.7 5.7 5.7 93 0.5 CALM 0 0 0 0 - - 1.8
02/07:00am 6.6 5.6 5.6 93 0.5 CALM 0 0 0 0 - - 1.8
02/06:30am 6.5 4.3 5.5 93 0.4 SW 6 7 3 4 - - 1.8
02/06:00am 6.4 5.4 5.4 93 0.4 CALM 0 6 0 3 - - 1.8
02/05:30am 6.3 5.2 5.3 93 0.4 CALM 0 0 0 0 - - 1.8
02/05:00am 6.3 4.5 5.3 93 0.4 SW 4 7 2 4 - - 1.8
02/04:30am 5.9 4.8 4.9 93 0.4 CALM 0 0 0 0 - - 1.8
02/04:00am 6.4 5.3 5.2 92 0.5 CALM 0 0 0 0 - - 1.8
02/03:30am 6.7 4.4 5.7 93 0.5 SSE 7 11 4 6 - - 1.6
02/03:00am 6.4 4.0 5.4 93 0.4 SW 7 13 4 7 - - 1.6

Other Formats:

Comma delimited format used in spreadsheet applications
http://www.bom.gov.au/fwo/IDW60801/IDW60801.94631.axf

JavaScript Object Notation format (JSON) in row-major order
http://www.bom.gov.au/fwo/IDW60801/IDW60801.94631.json